Search for airport 
image banner adimage banner adimage banner ad
image banner ad

VTKCH - Koh Chang Airfield

Located in , Thailand

ICAO - , IATA -

Data provided by Airmate  

General information

Coordinates: N12°3'9" E102°17'49"
Elevation is 10 feet MSL.
 
View others Airports in Trat Province

Operational data

Special qualification required
Current time UTC:
Current local time:
METAR: VTBO 190900Z 21005KT 9999 FEW020 31/25 Q1011
TAF: TAF VTBO 190500Z 1906/2006 08008KT 9999 FEW020 BECMG 1916/1918 02005KT BECMG 2002/2004 10008KT
View NOTAMs / SUP AIP / TFR affecting this airport [VIEW]
Communications frequencies: [VIEW]

Runways:

RWY identifierQFULength (ft)Width (ft)SurfaceLDA (ft)
0413120GRAS
2213120GRAS

Airport contact information

Address: Thailand

Satellite view of VTKCH